createdAt,value
2017-07-14T00:01:15.199Z,63.60
2017-07-14T00:03:42.734Z,64.40
2017-07-14T00:06:10.312Z,64.60
2017-07-14T00:08:37.834Z,64.40
2017-07-14T00:11:05.365Z,65.10
2017-07-14T00:13:32.932Z,65.60
2017-07-14T00:16:00.450Z,66.00
2017-07-14T00:18:28.015Z,65.10
2017-07-14T00:20:55.545Z,66.60
2017-07-14T00:23:23.848Z,66.30
2017-07-14T00:25:51.414Z,66.20
2017-07-14T00:28:18.941Z,67.50
2017-07-14T00:30:47.276Z,67.60
2017-07-14T00:33:14.788Z,68.20
2017-07-14T00:35:42.310Z,67.40
2017-07-14T00:38:09.877Z,64.10
2017-07-14T00:40:38.177Z,66.20
2017-07-14T00:43:05.741Z,65.70
2017-07-14T00:45:33.301Z,65.70
2017-07-14T00:48:00.838Z,66.50
2017-07-14T00:50:28.360Z,66.90
2017-07-14T00:52:55.922Z,65.40
2017-07-14T00:55:23.448Z,65.60
2017-07-14T00:57:50.975Z,67.20
2017-07-14T01:00:18.536Z,67.30
2017-07-14T01:02:46.071Z,67.70
2017-07-14T01:05:14.394Z,62.30
2017-07-14T01:07:41.913Z,62.10
2017-07-14T01:10:09.497Z,62.10
2017-07-14T01:12:37.032Z,63.40
2017-07-14T01:15:05.339Z,64.90
2017-07-14T01:17:32.901Z,64.80
2017-07-14T01:20:00.423Z,65.50
2017-07-14T01:22:27.950Z,65.00
2017-07-14T01:24:55.545Z,66.90
2017-07-14T01:27:23.062Z,66.80
2017-07-14T01:29:50.571Z,65.00
2017-07-14T01:32:18.169Z,65.40
2017-07-14T01:34:45.691Z,66.40
2017-07-14T01:37:13.219Z,66.10
2017-07-14T01:39:40.771Z,66.10
2017-07-14T01:42:09.084Z,66.70
2017-07-14T01:44:36.657Z,67.20
2017-07-14T01:47:04.189Z,68.00
2017-07-14T01:49:31.757Z,69.30
2017-07-14T01:51:59.272Z,68.20
2017-07-14T01:54:26.789Z,69.50
2017-07-14T01:56:54.363Z,69.10
2017-07-14T01:59:21.921Z,68.40
2017-07-14T02:01:49.445Z,68.70
2017-07-14T02:04:17.016Z,68.40
2017-07-14T02:06:44.541Z,67.10
2017-07-14T02:09:12.070Z,68.40
2017-07-14T02:11:39.630Z,68.20
2017-07-14T02:14:07.153Z,68.70
2017-07-14T02:16:34.732Z,69.90
2017-07-14T02:19:02.240Z,70.30
2017-07-14T02:21:29.770Z,69.90
2017-07-14T02:23:57.332Z,70.20
2017-07-14T02:26:24.866Z,69.90
2017-07-14T02:28:52.397Z,70.50
2017-07-14T02:31:19.952Z,69.90
2017-07-14T02:33:47.548Z,70.40
2017-07-14T02:36:15.077Z,72.20
2017-07-14T02:38:42.622Z,72.50
2017-07-14T02:41:10.188Z,73.00
2017-07-14T02:43:37.712Z,72.20
2017-07-14T02:46:05.234Z,72.10
2017-07-14T02:48:32.799Z,73.10
2017-07-14T02:51:00.315Z,73.80
2017-07-14T02:53:27.840Z,73.40
2017-07-14T02:55:55.385Z,73.30
2017-07-14T02:58:22.944Z,73.60
2017-07-14T03:00:51.241Z,74.30
2017-07-14T03:03:18.769Z,74.90
2017-07-14T03:05:47.109Z,74.20
2017-07-14T03:08:14.633Z,74.10
2017-07-14T03:10:42.167Z,75.20
2017-07-14T03:13:09.737Z,75.70
2017-07-14T03:15:37.251Z,76.80
2017-07-14T03:18:04.769Z,76.60
2017-07-14T03:20:32.435Z,76.30
2017-07-14T03:22:59.948Z,76.30
2017-07-14T03:25:28.252Z,75.40
2017-07-14T03:27:55.810Z,75.30
2017-07-14T03:30:23.336Z,76.70
2017-07-14T03:32:50.899Z,77.70
2017-07-14T03:35:19.177Z,78.10
2017-07-14T03:37:47.479Z,80.00
2017-07-14T03:40:15.036Z,80.50
2017-07-14T03:42:42.582Z,80.60
2017-07-14T03:45:10.141Z,80.90
2017-07-14T03:47:37.696Z,80.80
2017-07-14T03:50:05.976Z,81.40
2017-07-14T03:52:33.539Z,81.30
2017-07-14T03:55:01.068Z,80.40
2017-07-14T03:57:28.593Z,80.90
2017-07-14T03:59:56.187Z,80.00
2017-07-14T04:02:24.489Z,80.90
2017-07-14T04:04:52.014Z,80.90
2017-07-14T04:07:19.569Z,81.10
2017-07-14T04:09:47.084Z,82.30
2017-07-14T04:12:14.611Z,82.20
2017-07-14T04:14:42.169Z,83.20
2017-07-14T04:17:09.700Z,82.00
2017-07-14T04:19:37.217Z,82.40
2017-07-14T04:22:04.773Z,81.60
2017-07-14T04:24:32.294Z,81.80
2017-07-14T04:26:59.852Z,83.10
2017-07-14T04:29:27.429Z,82.70
2017-07-14T04:31:54.993Z,82.60
2017-07-14T04:34:22.503Z,83.20
2017-07-14T04:36:50.020Z,83.90
2017-07-14T04:39:17.576Z,84.20
2017-07-14T04:41:45.084Z,84.50
2017-07-14T04:44:13.389Z,82.70
2017-07-14T04:46:40.953Z,82.70
2017-07-14T04:49:08.477Z,81.90
2017-07-14T04:51:36.005Z,82.80
2017-07-14T04:54:03.556Z,82.80
2017-07-14T04:56:31.065Z,83.20
2017-07-14T04:58:58.626Z,82.70
2017-07-14T05:01:26.156Z,83.10
2017-07-14T05:03:54.448Z,83.40
2017-07-14T05:06:22.024Z,83.30
2017-07-14T05:08:49.544Z,82.30
2017-07-14T05:11:17.076Z,82.70
2017-07-14T05:13:44.637Z,82.50
2017-07-14T05:18:46.598Z,83.30
2017-07-14T05:21:14.114Z,82.60
2017-07-14T05:23:42.392Z,83.90
2017-07-14T05:26:10.731Z,84.30
2017-07-14T05:28:38.269Z,84.30
2017-07-14T05:31:05.797Z,83.80
2017-07-14T05:33:33.361Z,83.30
2017-07-14T05:36:00.887Z,81.90
2017-07-14T05:38:28.418Z,81.70
2017-07-14T05:40:55.973Z,81.20
2017-07-14T05:43:24.492Z,81.20
2017-07-14T05:45:52.053Z,80.10
2017-07-14T05:48:19.582Z,78.80
2017-07-14T05:50:47.104Z,78.40
2017-07-14T05:53:14.675Z,77.80
2017-07-14T05:55:42.199Z,77.60
2017-07-14T05:58:09.731Z,77.50
2017-07-14T06:00:37.356Z,76.60
2017-07-14T06:03:04.877Z,76.60
2017-07-14T06:05:32.395Z,78.40
2017-07-14T06:07:59.970Z,80.00
2017-07-14T06:10:28.248Z,80.90
2017-07-14T06:12:55.813Z,80.70
2017-07-14T06:15:23.342Z,80.90
2017-07-14T06:17:50.918Z,82.60
2017-07-14T06:20:18.436Z,81.10
2017-07-14T06:22:45.951Z,82.80
2017-07-14T06:25:13.500Z,81.90
2017-07-14T06:27:41.036Z,82.50
2017-07-14T06:30:09.324Z,81.60
2017-07-14T06:32:37.629Z,82.10
2017-07-14T06:35:05.148Z,81.90
2017-07-14T06:37:33.461Z,81.60
2017-07-14T06:40:00.993Z,81.60
2017-07-14T06:42:28.567Z,83.50
2017-07-14T06:44:56.090Z,84.00
2017-07-14T06:47:24.386Z,83.00
2017-07-14T06:49:51.944Z,82.90
2017-07-14T06:52:19.497Z,81.70
2017-07-14T06:54:47.041Z,83.10
2017-07-14T06:57:15.388Z,82.80
2017-07-14T06:59:42.903Z,82.80
2017-07-14T07:02:10.431Z,81.80
2017-07-14T07:04:37.995Z,81.00
2017-07-14T07:07:05.548Z,80.60
2017-07-14T07:09:33.120Z,81.00
2017-07-14T07:12:00.660Z,81.40
2017-07-14T07:14:28.212Z,79.80
2017-07-14T07:16:55.782Z,79.80
2017-07-14T07:19:24.073Z,81.00
2017-07-14T07:21:51.663Z,81.00
2017-07-14T07:24:19.241Z,81.20
2017-07-14T07:26:46.753Z,81.40
2017-07-14T07:29:14.284Z,81.80
2017-07-14T07:31:42.613Z,83.10
2017-07-14T07:34:10.158Z,83.10
2017-07-14T07:36:37.746Z,82.50
2017-07-14T07:39:05.288Z,82.90
2017-07-14T07:41:32.804Z,82.20
2017-07-14T07:44:01.119Z,82.20
2017-07-14T07:46:49.385Z,82.10
2017-07-14T07:49:22.562Z,84.40
2017-07-14T07:51:50.095Z,82.10
2017-07-14T07:54:17.653Z,82.30
2017-07-14T07:56:45.167Z,82.60
2017-07-14T07:59:12.685Z,80.60
2017-07-14T08:01:40.257Z,81.40
2017-07-14T08:04:07.780Z,80.00
2017-07-14T08:06:35.306Z,79.80
2017-07-14T08:09:02.894Z,79.30
2017-07-14T08:11:30.420Z,79.30
2017-07-14T08:13:58.718Z,78.30
2017-07-14T08:16:26.289Z,78.20
2017-07-14T08:18:53.808Z,77.30
2017-07-14T08:21:22.136Z,77.00
2017-07-14T08:23:49.744Z,76.90
2017-07-14T08:26:17.294Z,78.00
2017-07-14T08:28:44.881Z,75.10
2017-07-14T08:31:12.408Z,74.50
2017-07-14T08:33:39.967Z,75.80
2017-07-14T08:36:07.557Z,74.90
2017-07-14T08:38:35.106Z,74.90
2017-07-14T08:41:03.420Z,75.10
2017-07-14T08:43:30.989Z,75.00
2017-07-14T08:45:58.536Z,72.20
2017-07-14T08:48:26.078Z,71.50
2017-07-14T08:50:53.678Z,69.90
2017-07-14T08:53:21.209Z,69.60
2017-07-14T08:55:48.724Z,67.70
2017-07-14T08:58:17.096Z,63.90
2017-07-14T09:00:45.409Z,63.70
2017-07-14T09:03:12.986Z,63.60
2017-07-14T09:05:40.545Z,65.10
2017-07-14T09:08:08.067Z,62.70
2017-07-14T09:10:35.624Z,61.00
2017-07-14T09:13:03.191Z,60.60
2017-07-14T09:15:30.722Z,60.80
2017-07-14T09:17:58.268Z,59.70
2017-07-14T09:20:25.866Z,58.80
2017-07-14T09:22:53.420Z,61.40
2017-07-14T09:25:20.941Z,62.90
2017-07-14T09:27:48.504Z,63.10
2017-07-14T09:30:16.024Z,63.20
2017-07-14T09:32:43.549Z,63.50
2017-07-14T09:35:11.128Z,63.20
2017-07-14T09:37:38.645Z,63.40
2017-07-14T09:40:06.162Z,64.80
2017-07-14T09:42:33.720Z,63.40
2017-07-14T09:45:01.256Z,64.60
2017-07-14T09:47:28.816Z,63.90
2017-07-14T09:49:56.396Z,64.50
2017-07-14T09:52:23.934Z,64.20
2017-07-14T09:54:51.456Z,65.20
2017-07-14T09:57:19.029Z,63.20
2017-07-14T09:59:46.589Z,63.50
2017-07-14T10:02:14.111Z,57.00
2017-07-14T10:04:41.671Z,58.30
2017-07-14T10:07:09.199Z,57.20
2017-07-14T10:09:36.756Z,57.20
2017-07-14T10:12:04.268Z,54.90
2017-07-14T10:14:31.796Z,55.10
2017-07-14T10:16:59.374Z,54.50
2017-07-14T10:19:27.665Z,56.60
2017-07-14T10:21:55.225Z,56.60
2017-07-14T10:24:22.802Z,55.20
2017-07-14T10:26:50.337Z,52.60
2017-07-14T10:29:17.881Z,52.30
2017-07-14T10:31:45.436Z,53.80
2017-07-14T10:34:13.717Z,53.50
2017-07-14T10:36:41.307Z,53.50
2017-07-14T10:39:08.837Z,52.80
2017-07-14T10:41:36.364Z,53.30
2017-07-14T10:44:03.928Z,53.10
2017-07-14T10:46:31.445Z,53.10
2017-07-14T10:48:58.985Z,53.90
2017-07-14T10:51:26.540Z,55.30
2017-07-14T10:53:54.101Z,53.10
2017-07-14T10:56:21.652Z,53.30
2017-07-14T10:58:49.255Z,50.90
2017-07-14T11:01:16.780Z,50.80
2017-07-14T11:03:44.328Z,50.20
2017-07-14T11:06:11.876Z,51.10
2017-07-14T11:08:39.402Z,49.20
2017-07-14T11:11:06.969Z,50.60
2017-07-14T11:13:35.276Z,54.30
2017-07-14T11:16:02.837Z,54.20
2017-07-14T11:18:30.366Z,54.80
2017-07-14T11:20:57.884Z,56.30
2017-07-14T11:23:25.457Z,55.00
2017-07-14T11:25:52.987Z,53.90
2017-07-14T11:28:20.533Z,52.10
2017-07-14T11:30:48.117Z,50.70
2017-07-14T11:33:15.636Z,51.20
2017-07-14T11:35:43.159Z,51.60
2017-07-14T11:38:10.719Z,51.00
2017-07-14T11:40:38.288Z,51.30
2017-07-14T11:43:05.868Z,52.40
2017-07-14T11:45:33.419Z,52.40
2017-07-14T11:48:00.933Z,54.00
2017-07-14T11:50:28.489Z,51.90
2017-07-14T11:52:56.025Z,51.60
2017-07-14T11:55:23.550Z,52.30
2017-07-14T11:57:51.114Z,53.50
2017-07-14T12:00:18.640Z,57.30
2017-07-14T12:02:46.941Z,66.60
2017-07-14T12:05:14.513Z,66.50
2017-07-14T12:07:42.027Z,69.90
2017-07-14T12:10:10.324Z,70.90
2017-07-14T12:12:37.901Z,70.90
2017-07-14T12:15:05.421Z,70.40
2017-07-14T12:17:33.697Z,72.00
2017-07-14T12:20:02.019Z,73.40
2017-07-14T12:22:29.567Z,73.40
2017-07-14T12:24:57.156Z,75.30
2017-07-14T12:27:24.684Z,76.50
2017-07-14T12:29:52.199Z,76.40
2017-07-14T12:32:19.783Z,76.80
2017-07-14T12:34:47.300Z,77.70
2017-07-14T12:37:14.858Z,78.30
2017-07-14T12:39:42.429Z,78.20
2017-07-14T12:42:10.760Z,75.80
2017-07-14T12:44:38.321Z,75.60
2017-07-14T12:47:05.892Z,76.60
2017-07-14T12:49:33.460Z,75.60
2017-07-14T12:52:01.004Z,75.30
2017-07-14T12:54:28.542Z,75.20
2017-07-14T12:56:56.107Z,75.50
2017-07-14T12:59:23.640Z,75.00
2017-07-14T13:01:51.180Z,76.80
2017-07-14T13:04:18.789Z,76.20
2017-07-14T13:06:46.335Z,76.70
2017-07-14T13:09:13.870Z,75.30
2017-07-14T13:11:41.473Z,76.80
2017-07-14T13:14:08.999Z,76.60
2017-07-14T13:16:36.551Z,77.00
2017-07-14T13:19:04.331Z,78.70
2017-07-14T13:21:31.857Z,77.50
2017-07-14T13:23:59.418Z,76.00
2017-07-14T13:26:27.051Z,78.10
2017-07-14T13:28:54.601Z,75.60
2017-07-14T13:31:22.193Z,77.00
2017-07-14T13:33:49.776Z,79.20
2017-07-14T13:36:17.778Z,80.00
2017-07-14T13:38:45.413Z,77.90
2017-07-14T13:41:13.014Z,77.00
2017-07-14T13:43:41.394Z,77.80
2017-07-14T13:46:09.935Z,77.20
2017-07-14T13:48:37.501Z,77.10
2017-07-14T13:51:05.121Z,78.60
2017-07-14T13:53:33.093Z,76.50
2017-07-14T13:56:00.674Z,72.90
2017-07-14T13:58:28.290Z,74.60
2017-07-14T14:00:55.917Z,73.50
2017-07-14T14:03:23.729Z,75.00
2017-07-14T14:05:52.130Z,76.10
2017-07-14T14:08:19.673Z,75.20
2017-07-14T14:10:47.252Z,70.40
2017-07-14T14:13:15.287Z,73.90
2017-07-14T14:15:42.924Z,73.90
2017-07-14T14:18:10.481Z,73.00
2017-07-14T14:20:38.852Z,70.90
2017-07-14T14:23:06.925Z,70.80
2017-07-14T14:25:34.453Z,69.40
2017-07-14T14:28:02.097Z,72.20
2017-07-14T14:30:29.633Z,74.30
2017-07-14T14:32:57.170Z,70.30
2017-07-14T14:35:25.741Z,73.80
2017-07-14T14:37:53.291Z,73.70
2017-07-14T14:40:20.829Z,70.90
2017-07-14T14:42:48.460Z,72.40
2017-07-14T14:45:16.027Z,75.80
2017-07-14T14:47:43.543Z,71.90
2017-07-14T14:50:11.901Z,71.90
2017-07-14T14:52:39.432Z,71.70
2017-07-14T14:55:06.972Z,72.10
2017-07-14T14:57:34.545Z,72.50
2017-07-14T15:00:02.081Z,66.70
2017-07-14T15:02:29.597Z,69.60
2017-07-14T15:04:57.949Z,69.20
2017-07-14T15:07:25.489Z,68.40
2017-07-14T15:09:53.017Z,68.00
2017-07-14T15:12:20.588Z,65.30
2017-07-14T15:14:48.108Z,68.10
2017-07-14T15:17:16.397Z,69.70
2017-07-14T15:19:44.020Z,68.90
2017-07-14T15:22:11.543Z,68.80
2017-07-14T15:24:39.081Z,70.80
2017-07-14T15:27:06.696Z,75.50
2017-07-14T15:29:34.241Z,73.80
2017-07-14T15:32:01.761Z,73.00
2017-07-14T15:34:29.326Z,73.70
2017-07-14T15:36:56.857Z,73.40
2017-07-14T15:39:25.177Z,73.40
2017-07-14T15:41:52.752Z,73.20
2017-07-14T15:44:20.316Z,72.40
2017-07-14T15:46:47.853Z,71.40
2017-07-14T15:49:15.462Z,72.10
2017-07-14T15:51:43.764Z,68.40
2017-07-14T15:54:11.289Z,68.20
2017-07-14T15:56:39.632Z,71.50
2017-07-14T15:59:07.161Z,71.10
2017-07-14T16:01:34.686Z,71.90
2017-07-14T16:04:03.061Z,70.10
2017-07-14T16:06:30.580Z,70.10
2017-07-14T16:08:58.109Z,69.10
2017-07-14T16:11:25.715Z,70.30
2017-07-14T16:13:53.261Z,70.40
2017-07-14T16:16:20.781Z,68.90
2017-07-14T16:18:48.340Z,68.20
2017-07-14T16:21:15.876Z,69.50
2017-07-14T16:23:44.172Z,70.30
2017-07-14T16:26:11.756Z,70.20
2017-07-14T16:28:39.317Z,69.40
2017-07-14T16:31:06.893Z,69.70
2017-07-14T16:33:34.508Z,70.70
2017-07-14T16:36:02.052Z,70.40
2017-07-14T16:38:29.614Z,71.10
2017-07-14T16:40:57.940Z,72.00
2017-07-14T16:43:25.475Z,72.00
2017-07-14T16:45:53.035Z,71.60
2017-07-14T16:48:20.613Z,72.10
2017-07-14T16:50:48.445Z,71.90
2017-07-14T16:53:16.035Z,71.60
2017-07-14T16:55:43.554Z,72.20
2017-07-14T16:58:11.081Z,70.00
2017-07-14T17:00:38.640Z,70.30
2017-07-14T17:03:06.937Z,72.80
2017-07-14T17:05:34.526Z,72.80
2017-07-14T17:08:02.048Z,72.00
2017-07-14T17:10:29.603Z,72.70
2017-07-14T17:12:57.232Z,73.10
2017-07-14T17:15:24.810Z,73.20
2017-07-14T17:17:53.131Z,74.80
2017-07-14T17:20:20.668Z,74.60
2017-07-14T17:22:48.248Z,74.80
2017-07-14T17:25:15.809Z,76.60
2017-07-14T17:27:43.336Z,77.70
2017-07-14T17:30:10.916Z,79.80
2017-07-14T17:32:39.413Z,81.00
2017-07-14T17:35:06.993Z,82.90
2017-07-14T17:37:34.528Z,83.90
2017-07-14T17:40:02.104Z,85.50
2017-07-14T17:42:29.731Z,86.60
2017-07-14T17:44:57.329Z,86.60
2017-07-14T17:47:25.791Z,84.80
2017-07-14T17:49:53.433Z,84.80
2017-07-14T17:52:25.147Z,86.20
2017-07-14T17:54:52.798Z,85.80
2017-07-14T17:57:20.392Z,87.30
2017-07-14T17:59:48.022Z,88.30
2017-07-14T18:02:15.633Z,88.30
2017-07-14T18:04:44.912Z,88.20
2017-07-14T18:07:12.616Z,88.50
2017-07-14T18:09:40.221Z,87.90
2017-07-14T18:12:07.905Z,87.70
2017-07-14T18:14:35.537Z,88.60
2017-07-14T18:17:03.135Z,87.70
2017-07-14T18:19:30.727Z,87.30
2017-07-14T18:21:59.093Z,86.00
2017-07-14T18:24:26.716Z,85.90
2017-07-14T18:26:54.335Z,87.80
2017-07-14T18:29:22.017Z,88.90
2017-07-14T18:31:49.721Z,88.30
2017-07-14T18:34:17.350Z,88.70
2017-07-14T18:36:45.044Z,89.90
2017-07-14T18:39:12.699Z,89.20
2017-07-14T18:41:40.325Z,89.00
2017-07-14T18:44:08.007Z,89.20
2017-07-14T18:46:35.690Z,89.60
2017-07-14T18:49:03.302Z,89.50
2017-07-14T18:51:30.990Z,88.40
2017-07-14T18:53:58.685Z,89.70
2017-07-14T18:56:26.408Z,89.70
2017-07-14T18:58:54.094Z,90.50
2017-07-14T19:01:21.756Z,89.60
2017-07-14T19:03:49.702Z,88.90
2017-07-14T19:06:17.438Z,87.20
2017-07-14T19:08:45.545Z,87.80
2017-07-14T19:11:13.246Z,88.40
2017-07-14T19:13:40.957Z,87.90
2017-07-14T19:16:08.686Z,87.10
2017-07-14T19:18:36.368Z,87.10
2017-07-14T19:21:04.029Z,88.60
2017-07-14T19:23:31.699Z,89.80
2017-07-14T19:25:59.341Z,90.20
2017-07-14T19:28:26.952Z,89.40
2017-07-14T19:30:54.653Z,89.50
2017-07-14T19:33:22.550Z,90.40
2017-07-14T19:35:50.308Z,90.60
2017-07-14T19:38:18.091Z,90.50
2017-07-14T19:40:45.821Z,90.20
2017-07-14T19:43:13.493Z,90.00
2017-07-14T19:45:41.325Z,90.50
2017-07-14T19:48:09.105Z,90.60
2017-07-14T19:50:38.844Z,90.80
2017-07-14T19:53:06.585Z,91.30
2017-07-14T19:55:34.396Z,91.50
2017-07-14T19:58:02.146Z,91.50
2017-07-14T20:00:29.857Z,91.90
2017-07-14T20:02:57.513Z,92.00
2017-07-14T20:05:25.312Z,92.10
2017-07-14T20:07:53.026Z,91.90
2017-07-14T20:10:20.855Z,91.70
2017-07-14T20:12:48.616Z,91.50
2017-07-14T20:15:16.867Z,91.60
2017-07-14T20:17:44.595Z,90.90
2017-07-14T20:20:12.296Z,90.50
2017-07-14T20:22:42.703Z,90.70
2017-07-14T20:25:10.357Z,90.90
2017-07-14T20:27:38.029Z,90.80
2017-07-14T20:30:05.777Z,90.70
2017-07-14T20:32:34.192Z,90.20
2017-07-14T20:35:02.116Z,90.20
2017-07-14T20:37:32.874Z,90.80
2017-07-14T20:40:01.155Z,90.90
2017-07-14T20:42:29.800Z,90.90
2017-07-14T20:44:57.485Z,91.10
2017-07-14T20:47:25.077Z,91.40
2017-07-14T20:49:52.753Z,91.70
2017-07-14T20:52:21.137Z,92.00
2017-07-14T20:54:48.777Z,91.90
2017-07-14T20:57:16.499Z,91.90
2017-07-14T20:59:44.188Z,92.00
2017-07-14T21:02:13.571Z,92.30
2017-07-14T21:04:41.306Z,92.20
2017-07-14T21:07:09.109Z,92.40
2017-07-14T21:09:37.852Z,92.60
2017-07-14T21:12:07.673Z,92.50
2017-07-14T21:14:35.592Z,92.70
2017-07-14T21:17:03.980Z,93.10
2017-07-14T21:19:33.358Z,92.40
2017-07-14T21:22:03.044Z,92.10
2017-07-14T21:24:30.713Z,92.00
2017-07-14T21:26:59.953Z,92.50
2017-07-14T21:29:27.569Z,93.00
2017-07-14T21:31:55.363Z,93.10
2017-07-14T21:34:24.518Z,92.60
2017-07-14T21:36:55.156Z,92.60
2017-07-14T21:39:22.861Z,92.00
2017-07-14T21:41:59.695Z,91.70
2017-07-14T21:47:11.156Z,91.10
2017-07-14T21:49:45.095Z,91.50
2017-07-14T21:52:13.312Z,91.40
2017-07-14T21:54:41.815Z,91.80
2017-07-14T21:57:10.352Z,91.70
2017-07-14T21:59:38.206Z,91.60
2017-07-14T22:02:06.024Z,91.80
2017-07-14T22:07:18.163Z,92.60
2017-07-14T22:09:51.695Z,91.80
2017-07-14T22:12:19.805Z,92.20
2017-07-14T22:14:48.142Z,91.20
2017-07-14T22:17:19.722Z,90.90
2017-07-14T22:19:49.316Z,91.70
2017-07-14T22:25:20.538Z,91.40
2017-07-14T22:28:07.876Z,91.20
2017-07-14T22:36:36.317Z,91.90
2017-07-14T22:42:13.798Z,90.60
2017-07-14T22:44:46.571Z,90.60
2017-07-14T22:50:23.238Z,90.90
2017-07-14T22:52:51.602Z,90.80
2017-07-14T22:58:21.682Z,91.20
2017-07-14T23:00:49.961Z,91.10
2017-07-14T23:06:03.660Z,91.30
2017-07-14T23:08:32.551Z,91.40
2017-07-14T23:11:00.342Z,91.70
2017-07-14T23:22:33.108Z,91.80
2017-07-14T23:25:05.094Z,91.30
2017-07-14T23:30:53.016Z,91.70
2017-07-14T23:33:21.553Z,91.10
2017-07-14T23:35:55.094Z,91.00
